sensor_id;sensor_type;location;lat;lon;timestamp;P1;durP1;ratioP1;P2;durP2;ratioP2
38190;SDS011;25191;47.510;19.124;2024-03-02T00:12:15;18.90;;;15.23;;
38190;SDS011;25191;47.510;19.124;2024-03-02T00:32:16;18.73;;;14.90;;
38190;SDS011;25191;47.510;19.124;2024-03-02T00:52:23;18.20;;;13.90;;
38190;SDS011;25191;47.510;19.124;2024-03-02T01:12:24;17.75;;;13.88;;
38190;SDS011;25191;47.510;19.124;2024-03-02T01:32:24;15.52;;;12.25;;
38190;SDS011;25191;47.510;19.124;2024-03-02T01:52:29;15.05;;;12.02;;
38190;SDS011;25191;47.510;19.124;2024-03-02T02:12:30;15.98;;;12.10;;
38190;SDS011;25191;47.510;19.124;2024-03-02T02:32:30;14.43;;;11.90;;
38190;SDS011;25191;47.510;19.124;2024-03-02T02:52:34;14.27;;;11.50;;
38190;SDS011;25191;47.510;19.124;2024-03-02T03:12:36;12.98;;;10.63;;
38190;SDS011;25191;47.510;19.124;2024-03-02T03:32:37;12.60;;;10.40;;
38190;SDS011;25191;47.510;19.124;2024-03-02T03:52:37;12.80;;;10.32;;
38190;SDS011;25191;47.510;19.124;2024-03-02T04:12:37;12.52;;;10.23;;
38190;SDS011;25191;47.510;19.124;2024-03-02T04:32:38;13.13;;;9.93;;
38190;SDS011;25191;47.510;19.124;2024-03-02T04:52:38;11.05;;;9.75;;
38190;SDS011;25191;47.510;19.124;2024-03-02T05:12:39;10.77;;;9.50;;
38190;SDS011;25191;47.510;19.124;2024-03-02T05:32:42;11.73;;;9.35;;
38190;SDS011;25191;47.510;19.124;2024-03-02T05:52:43;11.02;;;8.85;;
38190;SDS011;25191;47.510;19.124;2024-03-02T06:12:43;10.40;;;8.88;;
38190;SDS011;25191;47.510;19.124;2024-03-02T06:32:44;10.20;;;8.63;;
38190;SDS011;25191;47.510;19.124;2024-03-02T06:52:46;13.30;;;8.70;;
38190;SDS011;25191;47.510;19.124;2024-03-02T07:12:46;10.18;;;8.60;;
38190;SDS011;25191;47.510;19.124;2024-03-02T07:32:49;11.48;;;8.88;;
38190;SDS011;25191;47.510;19.124;2024-03-02T07:52:51;11.52;;;9.15;;
38190;SDS011;25191;47.510;19.124;2024-03-02T08:12:52;10.02;;;8.50;;
38190;SDS011;25191;47.510;19.124;2024-03-02T08:32:52;10.27;;;8.40;;
38190;SDS011;25191;47.510;19.124;2024-03-02T08:52:52;11.65;;;8.25;;
38190;SDS011;25191;47.510;19.124;2024-03-02T09:12:53;9.73;;;8.45;;
38190;SDS011;25191;47.510;19.124;2024-03-02T09:32:55;10.80;;;8.00;;
38190;SDS011;25191;47.510;19.124;2024-03-02T09:52:56;9.45;;;7.63;;
38190;SDS011;25191;47.510;19.124;2024-03-02T10:13:03;8.40;;;7.13;;
38190;SDS011;25191;47.510;19.124;2024-03-02T10:33:05;10.20;;;7.13;;
38190;SDS011;25191;47.510;19.124;2024-03-02T10:53:06;7.57;;;6.75;;
38190;SDS011;25191;47.510;19.124;2024-03-02T11:13:08;11.15;;;7.30;;
38190;SDS011;25191;47.510;19.124;2024-03-02T11:33:09;89.10;;;46.15;;
38190;SDS011;25191;47.510;19.124;2024-03-02T11:53:10;61.13;;;34.03;;
38190;SDS011;25191;47.510;19.124;2024-03-02T12:13:12;51.67;;;25.15;;
38190;SDS011;25191;47.510;19.124;2024-03-02T12:33:13;38.60;;;18.92;;
38190;SDS011;25191;47.510;19.124;2024-03-02T12:53:14;28.52;;;14.27;;
38190;SDS011;25191;47.510;19.124;2024-03-02T13:13:15;20.40;;;11.38;;
38190;SDS011;25191;47.510;19.124;2024-03-02T13:33:16;15.30;;;9.45;;
38190;SDS011;25191;47.510;19.124;2024-03-02T13:53:22;15.43;;;9.60;;
38190;SDS011;25191;47.510;19.124;2024-03-02T14:13:24;82.35;;;23.90;;
38190;SDS011;25191;47.510;19.124;2024-03-02T14:33:27;51.42;;;17.88;;
38190;SDS011;25191;47.510;19.124;2024-03-02T14:53:28;36.28;;;14.90;;
38190;SDS011;25191;47.510;19.124;2024-03-02T15:13:28;39.10;;;13.35;;
38190;SDS011;25191;47.510;19.124;2024-03-02T15:33:29;30.80;;;12.02;;
38190;SDS011;25191;47.510;19.124;2024-03-02T15:53:31;29.20;;;13.20;;
38190;SDS011;25191;47.510;19.124;2024-03-02T16:13:31;23.38;;;11.80;;
38190;SDS011;25191;47.510;19.124;2024-03-02T16:33:32;23.67;;;12.23;;
38190;SDS011;25191;47.510;19.124;2024-03-02T16:53:33;19.67;;;11.60;;
38190;SDS011;25191;47.510;19.124;2024-03-02T17:13:34;21.35;;;11.63;;
38190;SDS011;25191;47.510;19.124;2024-03-02T17:33:35;22.02;;;12.07;;
38190;SDS011;25191;47.510;19.124;2024-03-02T17:53:36;17.35;;;11.10;;
38190;SDS011;25191;47.510;19.124;2024-03-02T18:13:38;18.45;;;11.48;;
38190;SDS011;25191;47.510;19.124;2024-03-02T18:33:38;14.45;;;9.70;;
38190;SDS011;25191;47.510;19.124;2024-03-02T18:53:39;19.40;;;11.45;;
38190;SDS011;25191;47.510;19.124;2024-03-02T19:13:39;15.57;;;9.27;;
38190;SDS011;25191;47.510;19.124;2024-03-02T19:33:40;12.38;;;9.35;;
38190;SDS011;25191;47.510;19.124;2024-03-02T19:53:42;12.85;;;9.40;;
38190;SDS011;25191;47.510;19.124;2024-03-02T20:13:43;12.40;;;9.07;;
38190;SDS011;25191;47.510;19.124;2024-03-02T20:33:43;12.57;;;9.50;;
38190;SDS011;25191;47.510;19.124;2024-03-02T20:53:43;12.27;;;9.02;;
38190;SDS011;25191;47.510;19.124;2024-03-02T21:13:45;11.77;;;8.32;;
38190;SDS011;25191;47.510;19.124;2024-03-02T21:33:47;12.40;;;7.25;;
38190;SDS011;25191;47.510;19.124;2024-03-02T21:53:47;11.10;;;7.68;;
38190;SDS011;25191;47.510;19.124;2024-03-02T22:34:01;8.13;;;6.35;;
38190;SDS011;25191;47.510;19.124;2024-03-02T22:54:21;8.80;;;6.25;;
38190;SDS011;25191;47.510;19.124;2024-03-02T23:14:22;6.88;;;5.78;;
38190;SDS011;25191;47.510;19.124;2024-03-02T23:34:26;7.72;;;5.90;;
38190;SDS011;25191;47.510;19.124;2024-03-02T23:54:28;7.97;;;5.97;;
